createdAt,value
2023-03-01T00:00:59.090Z,88453.00
2023-03-01T00:01:59.096Z,88451.00
2023-03-01T00:02:59.031Z,88449.00
2023-03-01T00:03:58.974Z,88451.00
2023-03-01T00:04:58.953Z,88449.00
2023-03-01T00:05:58.900Z,88447.00
2023-03-01T00:06:58.883Z,88449.00
2023-03-01T00:07:58.835Z,88447.00
2023-03-01T00:08:58.795Z,88447.00
2023-03-01T00:09:58.788Z,88445.00
2023-03-01T00:10:58.738Z,88441.00
2023-03-01T00:11:58.689Z,88443.00
2023-03-01T00:12:58.646Z,88443.00
2023-03-01T00:13:58.628Z,88443.00
2023-03-01T00:14:58.601Z,88443.00
2023-03-01T00:15:58.550Z,88441.00
2023-03-01T00:16:58.566Z,88443.00
2023-03-01T00:17:58.461Z,88441.00
2023-03-01T00:18:58.429Z,88441.00
2023-03-01T00:19:58.402Z,88441.00
2023-03-01T00:20:58.349Z,88443.00
2023-03-01T00:21:58.313Z,88441.00
2023-03-01T00:22:58.267Z,88439.00
2023-03-01T00:23:58.236Z,88439.00
2023-03-01T00:24:58.206Z,88437.00
2023-03-01T00:25:58.167Z,88435.00
2023-03-01T00:26:58.113Z,88435.00
2023-03-01T00:27:58.082Z,88433.00
2023-03-01T00:28:58.034Z,88433.00
2023-03-01T00:29:58.010Z,88433.00
2023-03-01T00:30:58.024Z,88433.00
2023-03-01T00:31:57.954Z,88433.00
2023-03-01T00:32:57.895Z,88429.00
2023-03-01T00:33:57.854Z,88431.00
2023-03-01T00:34:57.843Z,88429.00
2023-03-01T00:35:57.840Z,88433.00
2023-03-01T00:36:57.748Z,88431.00
2023-03-01T00:37:57.784Z,88433.00
2023-03-01T00:38:57.662Z,88431.00
2023-03-01T00:39:57.627Z,88433.00
2023-03-01T00:40:57.709Z,88433.00
2023-03-01T00:41:57.571Z,88431.00
2023-03-01T00:42:57.538Z,88429.00
2023-03-01T00:43:57.506Z,88431.00
2023-03-01T00:44:57.457Z,88429.00
2023-03-01T00:45:57.431Z,88431.00
2023-03-01T00:46:57.375Z,88431.00
2023-03-01T00:47:57.341Z,88433.00
2023-03-01T00:48:57.307Z,88433.00
2023-03-01T00:49:57.270Z,88435.00
2023-03-01T00:50:57.231Z,88435.00
2023-03-01T00:51:57.188Z,88439.00
2023-03-01T00:52:57.154Z,88437.00
2023-03-01T00:53:57.122Z,88435.00
2023-03-01T00:54:57.088Z,88435.00
2023-03-01T00:55:57.046Z,88431.00
2023-03-01T00:56:57.008Z,88433.00
2023-03-01T00:57:56.996Z,88433.00
2023-03-01T00:58:56.943Z,88431.00
2023-03-01T00:59:56.926Z,88435.00
2023-03-01T01:00:56.864Z,88429.00
2023-03-01T01:01:56.855Z,88433.00
2023-03-01T01:02:56.804Z,88433.00
2023-03-01T01:03:56.797Z,88431.00
2023-03-01T01:04:56.733Z,88433.00
2023-03-01T01:05:56.690Z,88431.00
2023-03-01T01:06:56.667Z,88431.00
2023-03-01T01:07:56.616Z,88431.00
2023-03-01T01:08:56.582Z,88429.00
2023-03-01T01:09:56.555Z,88427.00
2023-03-01T01:10:56.520Z,88427.00
2023-03-01T01:11:56.598Z,88427.00
2023-03-01T01:12:56.442Z,88423.00
2023-03-01T01:13:56.397Z,88421.00
2023-03-01T01:14:56.352Z,88421.00
2023-03-01T01:15:56.452Z,88416.00
2023-03-01T01:16:56.273Z,88416.00
2023-03-01T01:17:56.235Z,88416.00
2023-03-01T01:18:56.211Z,88414.00
2023-03-01T01:19:56.161Z,88416.00
2023-03-01T01:20:56.135Z,88414.00
2023-03-01T01:21:56.091Z,88412.00
2023-03-01T01:22:56.043Z,88410.00
2023-03-01T01:23:56.025Z,88408.00
2023-03-01T01:24:55.978Z,88406.00
2023-03-01T01:25:55.943Z,88406.00
2023-03-01T01:26:55.913Z,88404.00
2023-03-01T01:27:55.877Z,88402.00
2023-03-01T01:28:55.849Z,88400.00
2023-03-01T01:29:55.815Z,88398.00
2023-03-01T01:30:55.830Z,88398.00
2023-03-01T01:31:55.829Z,88398.00
2023-03-01T01:32:55.712Z,88394.00
2023-03-01T01:33:55.674Z,88398.00
2023-03-01T01:34:55.641Z,88398.00
2023-03-01T01:35:55.661Z,88398.00
2023-03-01T01:36:55.570Z,88398.00
2023-03-01T01:37:55.538Z,88396.00
2023-03-01T01:38:55.501Z,88388.00
2023-03-01T01:39:55.457Z,88390.00
2023-03-01T01:40:55.453Z,88386.00
2023-03-01T01:41:55.391Z,88392.00
2023-03-01T01:42:55.358Z,88392.00
2023-03-01T01:43:55.325Z,88388.00
2023-03-01T01:44:55.296Z,88384.00
2023-03-01T01:45:55.260Z,88386.00
2023-03-01T01:46:55.226Z,88382.00
2023-03-01T01:47:55.190Z,88380.00
2023-03-01T01:48:55.162Z,88380.00
2023-03-01T01:49:55.126Z,88382.00
2023-03-01T01:50:55.095Z,88382.00
2023-03-01T01:51:55.050Z,88382.00
2023-03-01T01:52:55.009Z,88384.00
2023-03-01T01:53:54.981Z,88380.00
2023-03-01T01:54:54.942Z,88380.00
2023-03-01T01:55:54.927Z,88380.00
2023-03-01T01:56:54.882Z,88378.00
2023-03-01T01:57:54.848Z,88380.00
2023-03-01T01:58:54.814Z,88378.00
2023-03-01T01:59:54.804Z,88378.00
2023-03-01T02:00:54.746Z,88374.00
2023-03-01T02:01:54.715Z,88378.00
2023-03-01T02:02:54.824Z,88374.00
2023-03-01T02:03:54.657Z,88378.00
2023-03-01T02:04:54.622Z,88376.00
2023-03-01T02:05:55.666Z,88376.00
2023-03-01T02:06:54.543Z,88374.00
2023-03-01T02:07:54.522Z,88378.00
2023-03-01T02:08:54.479Z,88380.00
2023-03-01T02:09:54.445Z,88378.00
2023-03-01T02:10:54.412Z,88378.00
2023-03-01T02:11:54.385Z,88378.00
2023-03-01T02:12:54.345Z,88376.00
2023-03-01T02:13:54.309Z,88378.00
2023-03-01T02:14:54.274Z,88376.00
2023-03-01T02:15:54.312Z,88378.00
2023-03-01T02:16:54.211Z,88380.00
2023-03-01T02:17:54.181Z,88378.00
2023-03-01T02:18:54.156Z,88376.00
2023-03-01T02:19:54.121Z,88374.00
2023-03-01T02:20:54.088Z,88372.00
2023-03-01T02:21:54.069Z,88372.00
2023-03-01T02:22:54.064Z,88370.00
2023-03-01T02:23:53.999Z,88370.00
2023-03-01T02:24:53.957Z,88366.00
2023-03-01T02:25:53.931Z,88361.00
2023-03-01T02:26:53.902Z,88362.00
2023-03-01T02:27:53.862Z,88364.00
2023-03-01T02:28:53.813Z,88361.00
2023-03-01T02:29:54.264Z,88359.00
2023-03-01T02:30:53.744Z,88361.00
2023-03-01T02:31:53.750Z,88359.00
2023-03-01T02:32:53.688Z,88357.00
2023-03-01T04:07:50.797Z,88280.00
2023-03-01T04:08:50.771Z,88280.00
2023-03-01T04:09:50.738Z,88282.00
2023-03-01T04:10:50.701Z,88282.00
2023-03-01T04:11:50.673Z,88276.00
2023-03-01T04:12:50.634Z,88276.00
2023-03-01T04:13:50.621Z,88276.00
2023-03-01T04:14:50.571Z,88278.00
2023-03-01T04:15:50.559Z,88274.00
2023-03-01T04:16:50.555Z,88274.00
2023-03-01T04:17:50.494Z,88272.00
2023-03-01T04:18:50.483Z,88274.00
2023-03-01T04:19:50.459Z,88276.00
2023-03-01T04:20:50.417Z,88276.00
2023-03-01T04:21:50.380Z,88274.00
2023-03-01T04:22:50.359Z,88272.00
2023-03-01T04:23:50.348Z,88276.00
2023-03-01T04:24:50.320Z,88276.00
2023-03-01T04:25:50.287Z,88274.00
2023-03-01T04:26:50.254Z,88272.00
2023-03-01T04:27:50.261Z,88272.00
2023-03-01T04:28:50.214Z,88272.00
2023-03-01T04:29:50.185Z,88274.00
2023-03-01T04:30:50.150Z,88272.00
2023-03-01T04:31:50.358Z,88274.00
2023-03-01T04:32:50.095Z,88276.00
2023-03-01T04:33:50.096Z,88276.00
2023-03-01T04:34:50.060Z,88278.00
2023-03-01T04:35:50.197Z,88278.00
2023-03-01T04:36:50.059Z,88278.00
2023-03-01T04:37:49.958Z,88278.00
2023-03-01T04:38:49.931Z,88278.00
2023-03-01T04:39:49.913Z,88276.00
2023-03-01T04:40:49.876Z,88272.00
2023-03-01T04:41:49.830Z,88272.00
2023-03-01T04:42:49.801Z,88270.00
2023-03-01T04:43:49.769Z,88270.00
2023-03-01T04:44:49.747Z,88272.00
2023-03-01T04:45:49.729Z,88272.00
2023-03-01T04:46:49.678Z,88272.00
2023-03-01T04:47:49.642Z,88270.00
2023-03-01T04:48:49.619Z,88268.00
2023-03-01T04:49:49.603Z,88270.00
2023-03-01T04:50:49.575Z,88270.00
2023-03-01T04:51:49.538Z,88270.00
2023-03-01T04:52:49.510Z,88268.00
2023-03-01T04:53:49.473Z,88266.00
2023-03-01T04:54:49.469Z,88270.00
2023-03-01T04:55:49.430Z,88270.00
2023-03-01T04:56:49.410Z,88268.00
2023-03-01T04:57:49.384Z,88268.00
2023-03-01T04:58:49.342Z,88268.00
2023-03-01T04:59:49.308Z,88266.00
2023-03-01T05:00:49.287Z,88266.00
2023-03-01T05:01:49.243Z,88266.00
2023-03-01T05:02:49.215Z,88266.00
2023-03-01T05:03:49.184Z,88266.00
2023-03-01T05:04:49.203Z,88266.00
2023-03-01T05:05:49.120Z,88266.00
2023-03-01T05:06:49.091Z,88264.00
2023-03-01T05:07:49.052Z,88266.00
2023-03-01T05:08:49.030Z,88264.00
2023-03-01T05:09:48.994Z,88260.00
2023-03-01T05:10:48.966Z,88258.00
2023-03-01T05:11:48.950Z,88262.00
2023-03-01T05:12:48.925Z,88260.00
2023-03-01T05:13:48.868Z,88262.00
2023-03-01T05:14:48.838Z,88262.00
2023-03-01T05:15:48.832Z,88262.00
2023-03-01T05:16:48.775Z,88264.00
2023-03-01T05:17:48.755Z,88266.00
2023-03-01T05:18:48.725Z,88264.00
2023-03-01T05:19:48.697Z,88266.00
2023-03-01T05:20:48.666Z,88264.00
2023-03-01T05:21:48.630Z,88266.00
2023-03-01T05:22:48.602Z,88266.00
2023-03-01T05:23:48.563Z,88268.00
2023-03-01T05:24:48.542Z,88266.00
2023-03-01T05:25:48.519Z,88270.00
2023-03-01T05:26:48.486Z,88270.00
2023-03-01T05:27:48.448Z,88266.00
2023-03-01T05:28:48.417Z,88264.00
2023-03-01T05:29:48.404Z,88266.00
2023-03-01T05:30:48.428Z,88266.00
2023-03-01T05:31:48.364Z,88268.00
2023-03-01T05:32:48.300Z,88268.00
2023-03-01T05:33:48.275Z,88266.00
2023-03-01T05:34:48.244Z,88264.00
2023-03-01T05:35:48.290Z,88260.00
2023-03-01T05:36:48.205Z,88262.00
2023-03-01T05:37:48.170Z,88260.00
2023-03-01T05:38:48.145Z,88260.00
2023-03-01T05:39:50.064Z,88260.00
2023-03-01T05:40:48.096Z,88262.00
2023-03-01T05:41:48.072Z,88262.00
2023-03-01T05:42:48.049Z,88262.00
2023-03-01T05:43:48.016Z,88262.00
2023-03-01T05:44:47.998Z,88260.00
2023-03-01T05:45:47.993Z,88260.00
2023-03-01T05:46:47.963Z,88256.00
2023-03-01T05:47:47.911Z,88260.00
2023-03-01T05:48:47.894Z,88258.00
2023-03-01T05:49:47.861Z,88262.00
2023-03-01T05:50:47.822Z,88262.00
2023-03-01T05:51:47.793Z,88258.00
2023-03-01T05:52:47.759Z,88260.00
2023-03-01T05:53:47.750Z,88258.00
2023-03-01T05:54:47.721Z,88256.00
2023-03-01T05:55:47.685Z,88256.00
2023-03-01T05:56:47.656Z,88256.00
2023-03-01T05:57:47.624Z,88258.00
2023-03-01T05:58:47.595Z,88258.00
2023-03-01T05:59:47.560Z,88262.00
2023-03-01T06:00:47.544Z,88260.00
2023-03-01T06:01:47.505Z,88262.00
2023-03-01T06:02:47.473Z,88262.00
2023-03-01T06:03:47.437Z,88262.00
2023-03-01T06:04:47.526Z,88264.00
2023-03-01T06:05:47.502Z,88264.00
2023-03-01T06:06:47.357Z,88264.00
2023-03-01T06:07:47.319Z,88266.00
2023-03-01T06:08:47.319Z,88266.00
2023-03-01T06:09:47.274Z,88268.00
2023-03-01T06:10:47.240Z,88268.00
2023-03-01T06:11:47.211Z,88270.00
2023-03-01T06:12:47.177Z,88268.00
2023-03-01T06:13:47.148Z,88268.00
2023-03-01T06:14:47.124Z,88268.00
2023-03-01T06:15:47.119Z,88268.00
2023-03-01T06:16:47.058Z,88272.00
2023-03-01T06:17:47.039Z,88272.00
2023-03-01T06:18:46.995Z,88272.00
2023-03-01T06:19:46.965Z,88272.00
2023-03-01T06:20:46.944Z,88274.00
2023-03-01T06:21:46.924Z,88276.00
2023-03-01T06:22:46.898Z,88276.00
2023-03-01T06:23:46.879Z,88278.00
2023-03-01T06:24:46.851Z,88272.00
2023-03-01T06:25:46.831Z,88278.00
2023-03-01T06:26:46.792Z,88282.00
2023-03-01T06:27:46.743Z,88292.00
2023-03-01T06:28:46.729Z,88292.00
2023-03-01T06:29:46.706Z,88286.00
2023-03-01T06:30:46.698Z,88286.00
2023-03-01T06:31:46.636Z,88284.00
2023-03-01T06:32:46.604Z,88286.00
2023-03-01T06:33:46.578Z,88288.00
2023-03-01T06:34:46.538Z,88286.00
2023-03-01T06:36:46.482Z,88292.00
2023-03-01T06:37:46.440Z,88294.00
2023-03-01T06:38:46.403Z,88286.00
2023-03-01T06:39:46.374Z,88282.00
2023-03-01T06:40:46.335Z,88280.00
2023-03-01T06:41:46.305Z,88280.00
2023-03-01T06:42:46.269Z,88278.00
2023-03-01T06:43:46.231Z,88280.00
2023-03-01T06:44:46.213Z,88282.00
2023-03-01T06:45:46.180Z,88284.00
2023-03-01T06:46:46.225Z,88278.00
2023-03-01T06:47:46.150Z,88278.00
2023-03-01T06:48:46.075Z,88278.00
2023-03-01T06:49:46.055Z,88280.00
2023-03-01T06:50:46.116Z,88278.00
2023-03-01T06:51:45.972Z,88282.00
2023-03-01T07:03:45.573Z,88278.00
2023-03-01T07:04:45.507Z,88276.00
2023-03-01T07:05:45.480Z,88272.00
2023-03-01T07:06:45.482Z,88270.00
2023-03-01T07:07:45.395Z,88268.00
2023-03-01T07:08:45.350Z,88268.00
2023-03-01T07:09:45.297Z,88268.00
2023-03-01T07:10:45.259Z,88266.00
2023-03-01T07:11:45.223Z,88268.00
2023-03-01T07:12:45.183Z,88268.00
2023-03-01T07:13:45.144Z,88266.00
2023-03-01T07:14:45.094Z,88270.00
2023-03-01T07:15:45.079Z,88268.00
2023-03-01T07:16:45.013Z,88266.00
2023-03-01T07:17:44.980Z,88266.00
2023-03-01T07:18:44.928Z,88266.00
2023-03-01T07:19:44.902Z,88268.00
2023-03-01T07:20:44.853Z,88266.00
2023-03-01T07:21:44.815Z,88270.00
2023-03-01T07:22:44.776Z,88268.00
2023-03-01T07:23:44.720Z,88272.00
2023-03-01T07:24:44.698Z,88270.00
2023-03-01T07:25:44.680Z,88268.00
2023-03-01T07:26:44.612Z,88266.00
2023-03-01T07:27:44.665Z,88268.00
2023-03-01T07:28:44.511Z,88268.00
2023-03-01T07:29:44.447Z,88266.00
2023-03-01T07:30:44.409Z,88266.00
2023-03-01T07:31:44.407Z,88268.00
2023-03-01T07:32:44.410Z,88270.00
2023-03-01T07:33:44.271Z,88274.00
2023-03-01T07:34:44.224Z,88272.00
2023-03-01T07:35:44.216Z,88270.00
2023-03-01T07:36:44.139Z,88274.00
2023-03-01T07:37:44.097Z,88276.00
2023-03-01T07:38:44.043Z,88274.00
2023-03-01T07:39:44.023Z,88274.00
2023-03-01T07:40:43.960Z,88272.00
2023-03-01T07:41:43.919Z,88272.00
2023-03-01T07:42:43.849Z,88272.00
2023-03-01T07:43:43.810Z,88270.00
2023-03-01T07:44:43.763Z,88266.00
2023-03-01T07:45:43.789Z,88262.00
2023-03-01T07:46:43.651Z,88260.00
2023-03-01T07:47:43.599Z,88262.00
2023-03-01T07:48:43.591Z,88262.00
2023-03-01T07:49:43.513Z,88260.00
2023-03-01T07:50:43.463Z,88264.00
2023-03-01T07:51:43.405Z,88264.00
2023-03-01T07:52:43.367Z,88266.00
2023-03-01T07:53:43.336Z,88264.00
2023-03-01T07:54:43.265Z,88266.00
2023-03-01T07:55:43.219Z,88264.00
2023-03-01T07:56:43.175Z,88264.00
2023-03-01T07:57:43.205Z,88260.00
2023-03-01T07:58:43.103Z,88260.00
2023-03-01T08:03:42.835Z,88252.00
2023-03-01T08:04:42.822Z,88254.00
2023-03-01T08:05:42.758Z,88252.00
2023-03-01T08:06:42.703Z,88256.00
2023-03-01T08:07:42.657Z,88258.00
2023-03-01T08:08:42.711Z,88254.00
2023-03-01T08:09:42.576Z,88252.00
2023-03-01T08:10:42.536Z,88251.00
2023-03-01T08:11:42.526Z,88252.00
2023-03-01T08:12:42.450Z,88251.00
2023-03-01T08:13:42.409Z,88249.00
2023-03-01T08:14:42.375Z,88247.00
2023-03-01T08:15:42.336Z,88249.00
2023-03-01T08:16:42.384Z,88247.00
2023-03-01T08:17:42.225Z,88249.00
2023-03-01T08:18:42.198Z,88245.00
2023-03-01T08:19:42.144Z,88245.00
2023-03-01T08:20:42.105Z,88243.00
2023-03-01T08:21:42.180Z,88243.00
2023-03-01T08:22:42.026Z,88245.00
2023-03-01T08:23:42.011Z,88245.00
2023-03-01T08:24:41.949Z,88245.00
2023-03-01T08:25:41.907Z,88243.00
2023-03-01T08:26:41.877Z,88237.00
2023-03-01T08:27:41.821Z,88241.00
2023-03-01T08:28:41.829Z,88239.00
2023-03-01T08:29:41.722Z,88241.00
2023-03-01T08:30:41.680Z,88241.00
2023-03-01T08:31:41.705Z,88239.00
2023-03-01T08:32:41.610Z,88239.00
2023-03-01T08:33:41.532Z,88239.00
2023-03-01T08:34:42.598Z,88237.00
2023-03-01T08:35:41.486Z,88239.00
2023-03-01T08:36:41.396Z,88235.00
2023-03-01T08:37:41.347Z,88235.00
2023-03-01T08:38:41.296Z,88233.00
2023-03-01T08:39:41.315Z,88235.00
2023-03-01T08:40:41.219Z,88231.00
2023-03-01T08:41:41.149Z,88229.00
2023-03-01T08:42:41.140Z,88222.00
2023-03-01T08:43:41.071Z,88229.00
2023-03-01T08:44:41.019Z,88218.00
2023-03-01T08:45:40.989Z,88218.00
2023-03-01T08:46:40.925Z,88214.00
2023-03-01T08:47:40.889Z,88212.00
2023-03-01T08:48:40.958Z,88214.00
2023-03-01T08:49:40.822Z,88210.00
2023-03-01T08:50:42.379Z,88208.00
2023-03-01T08:51:40.735Z,88208.00
2023-03-01T08:52:40.752Z,88208.00
2023-03-01T08:53:40.666Z,88208.00
2023-03-01T08:54:40.632Z,88208.00
2023-03-01T08:55:40.587Z,88208.00
2023-03-01T08:56:40.549Z,88206.00
2023-03-01T08:57:40.512Z,88202.00
2023-03-01T08:58:40.472Z,88200.00
2023-03-01T08:59:40.427Z,88194.00
2023-03-01T09:00:40.402Z,88196.00
2023-03-01T09:01:40.337Z,88192.00
2023-03-01T09:02:40.297Z,88198.00
2023-03-01T09:03:40.271Z,88198.00
2023-03-01T11:16:35.007Z,88024.00
2023-03-01T11:17:47.956Z,88022.00
2023-03-01T11:18:47.015Z,88012.00
2023-03-01T11:19:35.912Z,88012.00
2023-03-01T11:20:34.889Z,88012.00
2023-03-01T11:21:34.885Z,88014.00
2023-03-01T11:22:34.845Z,88012.00
2023-03-01T11:23:34.842Z,88010.00
2023-03-01T11:24:34.788Z,88008.00
2023-03-01T11:25:34.753Z,88016.00
2023-03-01T11:26:34.717Z,88014.00
2023-03-01T11:27:34.686Z,88020.00
2023-03-01T11:28:34.645Z,88014.00
2023-03-01T11:29:43.209Z,88012.00
2023-03-01T11:30:35.567Z,88012.00
2023-03-01T11:31:34.783Z,88014.00
2023-03-01T11:32:34.560Z,88010.00
2023-03-01T11:33:34.461Z,88010.00
2023-03-01T11:34:34.421Z,88006.00
2023-03-01T11:35:34.379Z,88006.00
2023-03-01T11:36:34.490Z,88004.00
2023-03-01T11:37:34.315Z,88000.00
2023-03-01T11:38:34.264Z,87998.00
2023-03-01T11:39:34.229Z,87994.00
2023-03-01T11:40:34.210Z,87994.00
2023-03-01T11:41:34.619Z,87996.00
2023-03-01T11:42:34.153Z,87994.00
2023-03-01T11:43:34.134Z,87988.00
2023-03-01T11:44:34.030Z,87990.00
2023-03-01T11:45:33.998Z,87988.00
2023-03-01T11:46:34.049Z,87985.00
2023-03-01T11:47:33.968Z,87987.00
2023-03-01T11:48:47.418Z,87987.00
2023-03-01T11:49:34.833Z,87987.00
2023-03-01T11:50:33.772Z,87988.00
2023-03-01T11:51:34.053Z,87987.00
2023-03-01T11:52:33.748Z,87987.00
2023-03-01T11:53:33.670Z,87985.00
2023-03-01T11:54:33.595Z,87985.00
2023-03-01T11:55:33.540Z,87985.00
2023-03-01T11:56:33.509Z,87990.00
2023-03-01T11:57:42.728Z,87990.00
2023-03-01T11:58:34.400Z,87990.00
2023-03-01T11:59:33.378Z,87992.00
2023-03-01T12:00:33.311Z,87994.00
2023-03-01T12:01:33.662Z,87992.00
2023-03-01T12:02:33.315Z,87992.00
2023-03-01T12:03:33.176Z,87994.00
2023-03-01T12:04:33.218Z,87990.00
2023-03-01T12:05:33.080Z,87990.00
2023-03-01T12:06:33.019Z,87990.00
2023-03-01T12:07:32.988Z,87990.00
2023-03-01T12:08:32.933Z,87990.00
2023-03-01T12:09:32.874Z,87992.00
2023-03-01T12:10:32.827Z,87992.00
2023-03-01T12:11:32.782Z,87996.00
2023-03-01T12:12:32.741Z,88000.00
2023-03-01T12:13:32.689Z,88002.00
2023-03-01T12:14:32.661Z,88006.00
2023-03-01T12:15:32.609Z,88008.00
2023-03-01T12:16:38.813Z,88010.00
2023-03-01T12:17:33.510Z,88006.00
2023-03-01T12:18:32.450Z,88004.00
2023-03-01T12:19:32.423Z,87998.00
2023-03-01T12:20:32.377Z,87994.00
2023-03-01T16:13:22.720Z,87950.00
2023-03-01T16:20:28.670Z,87946.00
2023-03-01T19:05:17.343Z,88034.00
2023-03-01T19:06:15.960Z,88034.00
2023-03-01T19:07:15.919Z,88030.00
2023-03-01T19:08:15.878Z,88034.00
2023-03-01T19:09:15.830Z,88034.00
2023-03-01T19:10:15.788Z,88032.00
2023-03-01T19:11:15.750Z,88030.00
2023-03-01T19:12:15.728Z,88030.00
2023-03-01T19:13:15.665Z,88032.00
2023-03-01T20:36:12.733Z,88053.00
2023-03-01T20:37:12.679Z,88053.00
2023-03-01T20:38:12.651Z,88051.00
2023-03-01T20:39:12.635Z,88053.00
2023-03-01T20:40:12.610Z,88049.00
2023-03-01T20:41:12.554Z,88051.00
2023-03-01T20:42:12.530Z,88049.00
2023-03-01T20:43:12.491Z,88053.00
2023-03-01T20:44:12.476Z,88047.00
2023-03-01T20:45:12.426Z,88043.00
2023-03-01T20:46:12.452Z,88043.00
2023-03-01T20:47:12.362Z,88042.00
2023-03-01T21:16:11.419Z,88055.00
2023-03-01T21:26:11.031Z,88053.00
2023-03-01T21:28:10.955Z,88049.00
2023-03-01T21:29:10.914Z,88053.00
2023-03-01T21:30:10.894Z,88053.00
2023-03-01T21:31:10.864Z,88053.00
2023-03-01T21:32:10.932Z,88053.00
2023-03-01T21:33:10.798Z,88057.00
2023-03-01T21:34:10.757Z,88053.00
2023-03-01T21:35:10.720Z,88053.00
2023-03-01T21:36:10.697Z,88053.00
2023-03-01T21:38:10.647Z,88047.00
2023-03-01T21:39:10.599Z,88045.00
2023-03-01T21:40:10.565Z,88045.00
2023-03-01T21:41:10.537Z,88045.00
2023-03-01T21:42:10.507Z,88049.00
2023-03-01T21:43:10.495Z,88049.00
2023-03-01T21:44:10.456Z,88053.00
2023-03-01T21:45:10.425Z,88053.00
2023-03-01T21:46:10.439Z,88055.00
2023-03-01T21:47:10.378Z,88053.00
2023-03-01T21:48:10.352Z,88053.00
2023-03-01T21:49:10.339Z,88053.00
2023-03-01T21:50:10.300Z,88051.00
2023-03-01T21:51:10.262Z,88045.00
2023-03-01T21:52:10.231Z,88047.00
2023-03-01T21:53:10.197Z,88049.00
2023-03-01T21:54:10.180Z,88049.00
2023-03-01T21:55:10.134Z,88049.00
2023-03-01T21:56:10.118Z,88051.00
2023-03-01T21:57:10.068Z,88051.00
2023-03-01T21:58:10.037Z,88053.00
2023-03-01T21:59:10.009Z,88053.00
2023-03-01T22:01:10.067Z,88049.00
2023-03-01T22:03:57.924Z,88051.00
2023-03-01T22:04:57.838Z,88047.00
2023-03-01T22:05:57.800Z,88045.00
2023-03-01T22:06:57.780Z,88040.00
2023-03-01T22:07:57.782Z,88036.00
2023-03-01T22:08:57.725Z,88038.00
2023-03-01T22:09:57.685Z,88042.00
2023-03-01T22:10:57.650Z,88042.00
2023-03-01T22:11:57.620Z,88040.00
2023-03-01T22:12:57.583Z,88042.00
2023-03-01T22:13:57.564Z,88040.00
2023-03-01T22:14:57.517Z,88042.00
2023-03-01T22:15:57.486Z,88042.00
2023-03-01T22:16:57.499Z,88042.00
2023-03-01T22:17:57.420Z,88038.00
2023-03-01T22:18:57.396Z,88038.00
2023-03-01T22:19:57.364Z,88036.00
2023-03-01T22:20:57.328Z,88032.00
2023-03-01T22:21:57.291Z,88032.00
2023-03-01T22:22:57.259Z,88032.00
2023-03-01T22:23:57.229Z,88032.00
2023-03-01T22:24:57.194Z,88032.00
2023-03-01T22:25:57.163Z,88034.00
2023-03-01T22:26:57.150Z,88034.00
2023-03-01T22:27:57.113Z,88032.00
2023-03-01T22:28:57.093Z,88030.00
2023-03-01T22:29:57.049Z,88026.00
2023-03-01T22:30:57.021Z,88028.00
2023-03-01T22:31:57.166Z,88024.00
2023-03-01T22:32:57.069Z,88024.00
2023-03-01T22:33:56.945Z,88022.00
2023-03-01T22:34:56.890Z,88020.00
2023-03-01T22:35:56.926Z,88016.00
2023-03-01T22:36:56.822Z,88016.00
2023-03-01T22:37:56.800Z,88016.00
2023-03-01T22:38:56.758Z,88018.00
2023-03-01T22:39:56.720Z,88020.00
2023-03-01T22:40:56.683Z,88018.00
2023-03-01T22:41:56.654Z,88020.00
2023-03-01T22:42:56.603Z,88022.00
2023-03-01T22:43:56.588Z,88018.00
2023-03-01T22:44:56.539Z,88020.00
2023-03-01T22:45:56.575Z,88020.00
2023-03-01T22:46:56.475Z,88018.00
2023-03-01T22:47:56.432Z,88020.00
2023-03-01T22:48:56.405Z,88018.00
2023-03-01T22:49:56.373Z,88018.00
2023-03-01T22:50:56.339Z,88016.00
2023-03-01T22:51:56.303Z,88018.00
2023-03-01T22:52:56.281Z,88022.00
2023-03-01T22:53:56.240Z,88022.00
2023-03-01T22:54:56.203Z,88022.00
2023-03-01T22:55:56.167Z,88026.00
2023-03-01T22:56:56.131Z,88024.00
2023-03-01T22:57:56.100Z,88022.00
2023-03-01T22:58:56.064Z,88020.00
2023-03-01T22:59:56.026Z,88016.00
2023-03-01T23:00:55.986Z,88018.00
2023-03-01T23:01:55.980Z,88018.00
2023-03-01T23:02:55.978Z,88018.00
2023-03-01T23:03:55.928Z,88022.00
2023-03-01T23:04:55.846Z,88016.00
2023-03-01T23:05:55.818Z,88020.00
2023-03-01T23:06:55.800Z,88020.00
2023-03-01T23:07:55.759Z,88018.00
2023-03-01T23:08:55.725Z,88016.00
2023-03-01T23:09:55.688Z,88014.00
2023-03-01T23:10:55.662Z,88014.00
2023-03-01T23:11:55.623Z,88018.00
2023-03-01T23:12:55.597Z,88012.00
2023-03-01T23:13:55.593Z,88010.00
2023-03-01T23:14:55.539Z,88014.00
2023-03-01T23:15:55.500Z,88012.00
2023-03-01T23:16:55.492Z,88006.00
2023-03-01T23:17:55.443Z,88010.00
2023-03-01T23:18:55.420Z,88012.00
2023-03-01T23:19:55.402Z,88012.00
2023-03-01T23:20:55.346Z,88012.00
2023-03-01T23:21:55.333Z,88012.00
2023-03-01T23:22:55.292Z,88010.00
2023-03-01T23:23:55.344Z,88014.00
2023-03-01T23:24:55.235Z,88014.00
2023-03-01T23:25:55.214Z,88012.00
2023-03-01T23:26:55.199Z,88010.00
2023-03-01T23:27:55.162Z,88010.00
2023-03-01T23:28:55.133Z,88008.00
2023-03-01T23:29:55.110Z,88008.00
2023-03-01T23:30:55.099Z,88010.00
2023-03-01T23:31:55.041Z,88010.00
2023-03-01T23:32:54.997Z,88012.00
2023-03-01T23:33:54.976Z,88016.00
2023-03-01T23:34:54.925Z,88016.00
2023-03-01T23:35:54.918Z,88018.00
2023-03-01T23:36:54.855Z,88018.00
2023-03-01T23:37:54.809Z,88018.00
2023-03-01T23:38:54.773Z,88016.00
2023-03-01T23:39:54.744Z,88012.00
2023-03-01T23:40:54.704Z,88018.00
2023-03-01T23:41:54.685Z,88016.00
2023-03-01T23:42:54.657Z,88016.00
2023-03-01T23:43:54.615Z,88018.00
2023-03-01T23:44:54.581Z,88018.00
2023-03-01T23:45:54.599Z,88014.00
2023-03-01T23:46:54.526Z,88018.00
2023-03-01T23:47:54.508Z,88020.00
2023-03-01T23:48:54.468Z,88020.00
2023-03-01T23:49:54.447Z,88022.00
2023-03-01T23:50:54.413Z,88018.00
2023-03-01T23:51:54.388Z,88020.00
2023-03-01T23:52:54.372Z,88016.00
2023-03-01T23:53:54.582Z,88020.00
2023-03-01T23:54:54.324Z,88026.00
2023-03-01T23:55:54.309Z,88026.00
2023-03-01T23:56:54.272Z,88030.00
2023-03-01T23:57:54.240Z,88030.00
2023-03-01T23:58:54.215Z,88028.00
2023-03-01T23:59:54.188Z,88028.00
